Time;durP1;ratioP1;P1;durP2;ratioP2;P2;SDS_P1;SDS_P2;PMS_P1;PMS_P2;Temp;Humidity;BMP_temperature;BMP_pressure;BME280_temperature;BME280_humidity;BME280_pressure;Samples;Min_cycle;Max_cycle;Signal;HPM_P1;HPM_P2
2021/08/15 00:00:38;;;;;;;26.92;19.67;;;;;;;18.72;68.34;100047.91;5046416;28;20049;-68
2021/08/15 00:03:06;;;;;;;23.20;18.23;;;;;;;18.75;68.62;100038.72;5049147;28;20127;-68
2021/08/15 00:05:33;;;;;;;23.55;16.80;;;;;;;18.77;68.34;100044.75;5047212;28;20400;-67
2021/08/15 00:08:01;;;;;;;22.38;17.10;;;;;;;18.80;68.16;100041.75;5046935;28;20057;-68
2021/08/15 00:10:28;;;;;;;28.45;18.40;;;;;;;18.82;68.37;100041.59;5047624;28;20052;-67
2021/08/15 00:12:55;;;;;;;23.38;17.73;;;;;;;18.81;68.13;100040.75;5046744;28;20049;-77
2021/08/15 00:15:22;;;;;;;25.10;18.75;;;;;;;18.80;68.20;100038.19;5046729;28;20468;-68
2021/08/15 00:17:49;;;;;;;21.92;18.23;;;;;;;18.78;68.29;100040.22;5047839;28;20053;-71
2021/08/15 00:20:16;;;;;;;22.00;17.58;;;;;;;18.79;68.37;100031.19;5046389;28;20497;-68
2021/08/15 00:22:44;;;;;;;22.35;18.55;;;;;;;18.82;68.52;100037.06;5046441;28;20071;-68
2021/08/15 00:25:15;;;;;;;22.52;17.63;;;;;;;18.89;68.48;100027.38;5046176;28;20045;-68
2021/08/15 00:27:42;;;;;;;22.55;17.50;;;;;;;18.92;68.18;100034.19;5044075;28;20045;-68
2021/08/15 00:30:11;;;;;;;26.45;17.83;;;;;;;18.95;68.18;100030.38;5046932;28;20057;-67
2021/08/15 00:32:38;;;;;;;18.15;15.18;;;;;;;18.97;68.19;100028.34;5046505;28;20060;-67
2021/08/15 00:35:06;;;;;;;21.80;16.45;;;;;;;18.95;67.99;100031.19;5046390;28;20056;-73
2021/08/15 00:37:33;;;;;;;20.20;15.52;;;;;;;18.92;67.74;100023.50;5047465;28;20493;-70
2021/08/15 00:40:00;;;;;;;21.50;16.27;;;;;;;18.87;67.74;100024.03;5047720;28;20049;-68
2021/08/15 00:42:28;;;;;;;18.77;14.63;;;;;;;18.81;67.27;100023.84;5046731;28;20049;-68
2021/08/15 00:44:55;;;;;;;17.70;15.00;;;;;;;18.73;67.26;100030.03;5047858;28;20059;-68
2021/08/15 00:47:22;;;;;;;20.27;16.73;;;;;;;18.63;66.95;100024.03;5047300;28;20041;-72
2021/08/15 00:49:50;;;;;;;22.55;17.20;;;;;;;18.58;67.48;100029.03;5047789;28;20040;-70
2021/08/15 00:52:16;;;;;;;23.17;18.20;;;;;;;18.55;67.79;100024.88;5046953;28;20045;-69
2021/08/15 00:54:43;;;;;;;24.42;18.42;;;;;;;18.54;68.23;100023.19;5047199;28;20091;-67
2021/08/15 00:57:10;;;;;;;20.50;17.02;;;;;;;18.54;68.28;100029.38;5045622;28;20413;-69
2021/08/15 00:59:39;;;;;;;20.98;16.50;;;;;;;18.54;68.42;100024.03;5052395;28;20049;-70
2021/08/15 01:02:08;;;;;;;21.80;17.85;;;;;;;18.54;68.63;100024.03;5051174;28;20397;-69
2021/08/15 01:04:38;;;;;;;23.25;17.50;;;;;;;18.53;68.71;100025.03;5048676;28;20071;-68
2021/08/15 01:07:05;;;;;;;22.80;18.08;;;;;;;18.51;68.66;100027.06;5048576;28;20045;-71
2021/08/15 01:09:33;;;;;;;26.67;17.30;;;;;;;18.51;68.77;100019.03;5046719;28;20049;-73
2021/08/15 01:12:00;;;;;;;18.73;15.48;;;;;;;18.53;68.87;100025.03;5046380;28;20076;-73
2021/08/15 01:14:27;;;;;;;23.63;16.77;;;;;;;18.57;68.76;100022.03;5047055;28;20055;-73
2021/08/15 01:16:56;;;;;;;19.80;16.25;;;;;;;18.60;68.75;100022.53;5045876;28;20052;-73
2021/08/15 01:19:29;;;;;;;18.17;14.95;;;;;;;18.65;68.72;100025.50;5046420;28;20048;-72
2021/08/15 01:21:56;;;;;;;23.85;17.55;;;;;;;18.66;68.66;100021.03;5047023;28;20129;-75
2021/08/15 01:24:23;;;;;;;21.50;16.13;;;;;;;18.68;68.70;100024.38;5046827;28;20048;-73
2021/08/15 01:26:52;;;;;;;21.98;16.35;;;;;;;18.69;68.58;100020.66;5045009;28;20440;-72
2021/08/15 01:29:22;;;;;;;21.63;16.45;;;;;;;18.70;68.33;100025.03;5050704;28;20049;-75
2021/08/15 01:31:49;;;;;;;23.92;18.40;;;;;;;18.73;68.33;100019.34;5051167;28;20045;-75
2021/08/15 01:34:16;;;;;;;18.70;14.75;;;;;;;18.74;68.54;100018.31;5047140;28;20048;-70
2021/08/15 01:36:43;;;;;;;20.13;15.75;;;;;;;18.76;68.32;100021.66;5047546;28;20075;-72
2021/08/15 01:39:10;;;;;;;19.33;15.10;;;;;;;18.78;68.35;100013.47;5050012;28;20544;-70
2021/08/15 01:41:37;;;;;;;22.42;15.75;;;;;;;18.79;68.20;100007.13;5050029;28;20045;-72
2021/08/15 01:44:05;;;;;;;20.25;15.07;;;;;;;18.80;68.17;99996.25;5049583;28;20447;-71
2021/08/15 01:46:34;;;;;;;16.05;13.68;;;;;;;18.81;67.89;99997.06;5050292;28;20053;-71
2021/08/15 01:49:03;;;;;;;18.65;13.05;;;;;;;18.77;67.37;99990.41;5047760;28;20045;-69
2021/08/15 01:51:31;;;;;;;19.83;14.98;;;;;;;18.69;67.46;99992.09;5046880;28;20041;-69
2021/08/15 01:54:02;;;;;;;24.77;16.75;;;;;;;18.66;67.65;100002.31;5047149;28;20072;-69
2021/08/15 01:56:29;;;;;;;25.13;16.00;;;;;;;18.62;67.51;100004.47;5046376;28;20052;-70
2021/08/15 01:58:56;;;;;;;17.98;13.35;;;;;;;18.59;67.52;100002.13;5044397;28;20051;-71
2021/08/15 02:01:24;;;;;;;18.70;15.40;;;;;;;18.56;67.79;99999.78;5027838;28;20041;-68
2021/08/15 02:03:52;;;;;;;18.48;14.02;;;;;;;18.54;67.66;99996.44;5045719;28;20045;-68
2021/08/15 02:06:19;;;;;;;20.60;15.70;;;;;;;18.52;67.71;99990.44;5046796;28;20052;-68
2021/08/15 02:08:46;;;;;;;18.23;15.57;;;;;;;18.50;67.75;99997.81;5045646;28;20060;-68
2021/08/15 02:11:13;;;;;;;23.60;16.30;;;;;;;18.47;67.86;99990.94;5047951;28;20389;-74
2021/08/15 02:13:40;;;;;;;21.38;16.52;;;;;;;18.46;68.07;99989.28;5046632;28;20041;-79
2021/08/15 02:16:08;;;;;;;18.92;15.85;;;;;;;18.46;67.94;99986.59;5046640;28;20049;-70
2021/08/15 02:18:34;;;;;;;22.40;16.13;;;;;;;18.50;68.15;99989.78;5047479;28;20052;-71
2021/08/15 02:21:03;;;;;;;21.00;16.27;;;;;;;18.53;68.10;99990.28;5047281;28;20057;-70
2021/08/15 02:23:30;;;;;;;16.75;13.98;;;;;;;18.54;68.00;99986.59;5046266;28;20045;-77
2021/08/15 02:25:57;;;;;;;20.20;15.93;;;;;;;18.55;68.12;99998.13;5046473;28;20642;-71
2021/08/15 02:28:23;;;;;;;20.35;16.02;;;;;;;18.56;68.27;99988.25;5043538;28;20053;-71
2021/08/15 02:30:50;;;;;;;18.80;15.55;;;;;;;18.57;68.04;99992.63;5046919;28;20049;-75
2021/08/15 02:33:17;;;;;;;22.52;16.45;;;;;;;18.56;67.92;99988.25;5046951;28;20076;-72
2021/08/15 02:35:44;;;;;;;20.13;14.43;;;;;;;18.54;67.96;99994.59;5045113;28;20064;-69
2021/08/15 02:38:13;;;;;;;18.70;15.32;;;;;;;18.54;67.85;99986.59;5045541;28;20045;-70
2021/08/15 02:40:40;;;;;;;17.35;14.50;;;;;;;18.52;67.72;99985.91;5045393;28;20051;-71
2021/08/15 02:43:07;;;;;;;20.67;15.93;;;;;;;18.51;67.96;99986.94;5045377;28;20106;-75
2021/08/15 02:45:34;;;;;;;19.75;15.50;;;;;;;18.52;67.94;99991.25;5047267;28;20056;-69
2021/08/15 02:48:01;;;;;;;19.33;15.55;;;;;;;18.52;68.03;99991.25;5045849;28;20049;-69
2021/08/15 02:50:28;;;;;;;15.98;13.63;;;;;;;18.53;67.97;99992.94;5045131;28;20531;-73
2021/08/15 02:52:55;;;;;;;21.10;15.68;;;;;;;18.51;67.99;99989.63;5045761;28;20045;-70
2021/08/15 02:55:23;;;;;;;19.38;14.60;;;;;;;18.52;67.87;99988.59;5046788;28;20394;-69
2021/08/15 02:57:50;;;;;;;20.80;15.18;;;;;;;18.52;67.65;99988.59;5043575;28;20045;-68
2021/08/15 03:00:17;;;;;;;18.63;15.05;;;;;;;18.49;67.83;99991.63;5044360;28;20060;-69
2021/08/15 03:02:44;;;;;;;18.55;14.80;;;;;;;18.50;67.89;99985.25;5044381;28;20461;-72
2021/08/15 03:05:12;;;;;;;21.63;16.48;;;;;;;18.51;68.00;99981.59;5045672;28;20053;-70
2021/08/15 03:07:39;;;;;;;21.30;16.92;;;;;;;18.54;68.14;99981.22;5047661;28;20060;-71
2021/08/15 03:10:08;;;;;;;19.30;15.25;;;;;;;18.60;68.04;99978.88;5047197;28;20056;-70
2021/08/15 03:12:36;;;;;;;22.15;16.60;;;;;;;18.63;68.18;99974.03;5045470;28;20475;-70
2021/08/15 03:15:04;;;;;;;18.67;15.15;;;;;;;18.65;68.22;99968.50;5046180;28;20152;-71
2021/08/15 03:17:31;;;;;;;19.40;17.25;;;;;;;18.69;68.17;99968.00;5047774;28;20045;-71
2021/08/15 03:19:58;;;;;;;20.85;15.52;;;;;;;18.74;68.08;99972.84;5048976;28;20409;-70
2021/08/15 03:22:25;;;;;;;20.33;16.10;;;;;;;18.83;68.00;99965.66;5047490;28;20049;-68
2021/08/15 03:24:52;;;;;;;22.52;15.98;;;;;;;18.95;67.83;99971.50;5044528;28;20097;-69
2021/08/15 03:27:19;;;;;;;17.83;15.90;;;;;;;19.07;67.41;99964.75;5042088;28;20052;-70
2021/08/15 03:29:47;;;;;;;22.80;16.42;;;;;;;19.16;67.37;99968.22;5044392;28;20057;-70
2021/08/15 03:32:14;;;;;;;20.05;17.45;;;;;;;19.22;67.08;99965.69;5044026;28;20067;-70
2021/08/15 03:34:41;;;;;;;19.88;14.95;;;;;;;19.25;67.21;99965.34;5043711;28;20048;-71
2021/08/15 03:37:08;;;;;;;18.92;15.85;;;;;;;19.28;66.79;99965.00;5044422;28;20684;-70
2021/08/15 03:39:35;;;;;;;18.98;16.05;;;;;;;19.30;67.25;99962.13;5044459;28;20053;-71
2021/08/15 03:42:02;;;;;;;18.60;14.57;;;;;;;19.31;66.91;99962.97;5043164;28;20056;-70
2021/08/15 03:44:30;;;;;;;16.92;14.25;;;;;;;19.35;66.90;99956.25;5044574;28;20067;-71
2021/08/15 03:46:58;;;;;;;19.60;14.88;;;;;;;19.39;66.90;99947.69;5044114;28;20053;-71
2021/08/15 03:49:27;;;;;;;22.17;15.15;;;;;;;19.41;66.83;99944.81;5043604;28;20052;-71
2021/08/15 03:51:54;;;;;;;18.17;14.43;;;;;;;19.43;66.75;99950.84;5043943;28;20099;-73
2021/08/15 03:54:21;;;;;;;18.23;14.27;;;;;;;19.44;66.54;99952.50;5043531;28;20045;-73
2021/08/15 03:56:48;;;;;;;16.90;14.20;;;;;;;19.46;66.68;99947.81;5041885;28;20628;-69
2021/08/15 03:59:16;;;;;;;16.63;13.77;;;;;;;19.46;66.20;99942.44;5046349;28;20045;-71
2021/08/15 04:01:44;;;;;;;20.17;15.32;;;;;;;19.45;66.12;99938.94;5047033;28;20056;-69
2021/08/15 04:04:12;;;;;;;20.80;15.00;;;;;;;19.42;66.19;99941.97;5050075;28;20063;-71
2021/08/15 04:06:39;;;;;;;22.55;15.65;;;;;;;19.45;66.27;99941.63;5050519;28;20049;-70
2021/08/15 04:09:06;;;;;;;23.02;14.40;;;;;;;19.53;66.36;99940.72;5046768;28;20064;-68
2021/08/15 04:11:33;;;;;;;20.23;15.77;;;;;;;19.68;65.96;99930.09;5047492;28;20056;-72
2021/08/15 04:14:00;;;;;;;19.77;16.08;;;;;;;19.91;65.66;99927.41;5046516;28;20661;-69
2021/08/15 04:16:27;;;;;;;17.27;14.68;;;;;;;20.16;65.13;99924.53;5046642;28;20361;-71
2021/08/15 04:18:55;;;;;;;20.48;18.10;;;;;;;20.43;64.33;99926.59;5047516;28;20045;-70
2021/08/15 04:21:24;;;;;;;20.15;15.32;;;;;;;20.69;64.32;99920.00;5052636;28;20065;-71
2021/08/15 04:23:51;;;;;;;20.77;16.08;;;;;;;21.15;62.97;99922.44;5047873;28;20103;-72
2021/08/15 04:26:18;;;;;;;21.45;16.10;;;;;;;21.66;61.84;99923.44;5055021;28;20053;-70
2021/08/15 04:28:45;;;;;;;20.17;15.85;;;;;;;21.98;61.39;99924.75;5045670;28;20049;-70
2021/08/15 04:31:12;;;;;;;19.70;15.35;;;;;;;22.21;60.78;99923.72;5046380;28;20045;-70
2021/08/15 04:33:38;;;;;;;23.98;16.98;;;;;;;22.23;60.71;99919.78;5046869;28;20045;-72
2021/08/15 04:36:06;;;;;;;21.50;17.35;;;;;;;22.08;60.86;99927.97;5047241;28;20135;-71
2021/08/15 04:38:34;;;;;;;23.08;17.60;;;;;;;21.92;61.46;99926.38;5046363;28;20041;-72
2021/08/15 04:41:01;;;;;;;22.02;17.63;;;;;;;21.91;61.16;99922.03;5046744;28;20056;-71
2021/08/15 04:43:28;;;;;;;23.17;16.45;;;;;;;21.92;61.22;99918.31;5046448;28;20408;-72
2021/08/15 04:45:55;;;;;;;25.23;17.77;;;;;;;22.03;61.10;99922.34;5046737;28;20055;-72
2021/08/15 04:48:22;;;;;;;22.25;18.15;;;;;;;22.07;60.99;99931.66;5046631;28;20056;-70
2021/08/15 04:50:49;;;;;;;21.48;17.70;;;;;;;22.03;61.06;99929.56;5046095;28;20056;-71
2021/08/15 04:53:16;;;;;;;27.15;19.60;;;;;;;22.00;61.46;99929.97;5046244;28;20049;-69
2021/08/15 04:55:44;;;;;;;22.13;16.67;;;;;;;22.29;60.73;99929.81;5046224;28;20041;-70
2021/08/15 04:58:11;;;;;;;23.50;18.55;;;;;;;22.23;60.86;99930.56;5045216;28;20060;-71
2021/08/15 05:00:38;;;;;;;26.10;18.67;;;;;;;22.13;61.04;99933.59;5045808;28;20041;-72
2021/08/15 05:03:07;;;;;;;24.05;19.52;;;;;;;22.11;61.27;99937.47;5045483;28;20040;-71
2021/08/15 05:05:33;;;;;;;25.02;19.40;;;;;;;22.25;61.02;99930.38;5046600;28;20698;-71
2021/08/15 05:08:00;;;;;;;23.95;18.38;;;;;;;22.80;60.20;99925.16;5045538;28;20124;-71
2021/08/15 05:10:27;;;;;;;21.45;17.33;;;;;;;23.31;58.93;99923.94;5044333;28;20473;-71
2021/08/15 05:12:55;;;;;;;21.80;17.90;;;;;;;23.98;57.33;99925.72;5046664;28;20052;-70
2021/08/15 05:15:22;;;;;;;21.27;18.00;;;;;;;24.44;56.58;99926.75;5046796;28;20053;-79
2021/08/15 05:17:49;;;;;;;17.48;15.52;;;;;;;25.04;55.02;99929.31;5046562;28;20128;-72
2021/08/15 05:20:16;;;;;;;20.40;15.98;;;;;;;25.55;53.99;99933.03;5048433;28;20052;-78
2021/08/15 05:22:43;;;;;;;19.63;17.48;;;;;;;26.05;52.88;99929.59;5047169;28;20489;-70
2021/08/15 05:25:11;;;;;;;17.70;14.43;;;;;;;26.39;52.11;99933.66;5045913;28;20048;-71
2021/08/15 05:27:38;;;;;;;17.20;13.93;;;;;;;26.71;51.31;99930.88;5044695;28;20053;-73
2021/08/15 05:30:08;;;;;;;16.25;14.55;;;;;;;26.98;50.44;99923.25;5045537;28;20057;-78
2021/08/15 05:32:34;;;;;;;15.35;13.38;;;;;;;26.91;50.22;99925.22;5046491;28;20107;-74
2021/08/15 05:35:01;;;;;;;19.98;15.70;;;;;;;26.97;50.45;99931.63;5045762;28;20658;-76
2021/08/15 05:37:29;;;;;;;16.85;15.00;;;;;;;27.26;49.37;99927.28;5051037;28;20053;-75
2021/08/15 05:39:56;;;;;;;17.02;14.68;;;;;;;27.19;49.55;99937.38;5051178;28;20068;-70
2021/08/15 05:42:23;;;;;;;16.92;14.20;;;;;;;26.99;49.91;99924.94;5050631;28;20041;-71
2021/08/15 05:44:50;;;;;;;16.80;13.63;;;;;;;26.76;50.25;99938.31;5050153;28;20059;-74
2021/08/15 05:47:18;;;;;;;17.05;13.63;;;;;;;26.43;50.89;99931.34;5046735;28;20082;-70
2021/08/15 05:49:45;;;;;;;17.45;13.75;;;;;;;26.18;51.52;99929.50;5044340;28;20053;-69
2021/08/15 05:52:12;;;;;;;20.70;14.30;;;;;;;25.90;52.22;99930.72;5047248;28;20059;-70
2021/08/15 05:54:38;;;;;;;21.02;14.98;;;;;;;25.50;53.25;99922.06;5044950;28;20109;-70
2021/08/15 05:57:05;;;;;;;18.60;13.82;;;;;;;25.39;53.15;99929.00;5041008;28;20064;-69
2021/08/15 05:59:32;;;;;;;17.50;14.27;;;;;;;25.37;53.25;99923.81;5044426;28;20052;-70
2021/08/15 06:02:00;;;;;;;17.70;14.63;;;;;;;25.41;53.65;99926.03;5044160;28;20440;-73
2021/08/15 06:04:28;;;;;;;16.67;14.45;;;;;;;25.31;53.89;99923.81;5042537;28;20044;-72
2021/08/15 06:06:56;;;;;;;22.88;14.57;;;;;;;25.22;54.04;99925.09;5043348;28;20088;-75
2021/08/15 06:09:23;;;;;;;16.05;13.80;;;;;;;25.10;54.45;99920.38;5026121;28;20045;-69
2021/08/15 06:11:49;;;;;;;16.42;13.50;;;;;;;25.14;54.31;99926.16;5042838;28;20497;-70
2021/08/15 06:14:17;;;;;;;17.05;14.35;;;;;;;25.32;54.16;99922.78;5044121;28;20051;-69
2021/08/15 06:16:44;;;;;;;16.02;13.20;;;;;;;25.57;53.62;99920.16;5042431;28;20052;-72
2021/08/15 06:19:10;;;;;;;17.70;14.23;;;;;;;25.68;53.30;99919.44;5042060;28;20137;-70
2021/08/15 06:21:39;;;;;;;14.60;12.88;;;;;;;25.93;52.90;99924.09;5042538;28;20041;-72
2021/08/15 06:24:06;;;;;;;17.58;12.98;;;;;;;26.26;51.74;99926.50;5043324;28;20045;-76
2021/08/15 06:26:33;;;;;;;18.95;12.65;;;;;;;26.44;51.46;99930.28;5041974;28;20048;-70
2021/08/15 06:29:00;;;;;;;15.60;13.00;;;;;;;26.42;51.56;99927.81;5041023;28;20715;-69
2021/08/15 06:31:27;;;;;;;13.48;11.57;;;;;;;26.21;51.82;99920.91;5043759;28;20075;-72
2021/08/15 06:33:54;;;;;;;13.20;11.82;;;;;;;26.09;52.09;99917.28;5041841;28;20640;-74
2021/08/15 06:36:21;;;;;;;17.48;12.73;;;;;;;26.13;52.11;99927.44;5043257;28;20060;-73
2021/08/15 06:38:49;;;;;;;16.48;12.43;;;;;;;26.39;51.33;99922.84;5042941;28;20067;-73
2021/08/15 06:41:16;;;;;;;14.10;12.00;;;;;;;26.70;50.41;99924.63;5043657;28;20058;-75
2021/08/15 06:43:43;;;;;;;13.57;11.52;;;;;;;26.81;50.16;99925.78;5044263;28;20052;-71
2021/08/15 06:46:10;;;;;;;16.42;12.00;;;;;;;26.71;50.23;99936.28;5042760;28;20053;-75
2021/08/15 06:48:37;;;;;;;13.77;10.38;;;;;;;26.57;50.23;99938.28;5041796;28;20056;-73
2021/08/15 06:51:04;;;;;;;18.00;11.00;;;;;;;26.49;50.05;99936.69;5042636;28;20049;-74
2021/08/15 06:53:31;;;;;;;13.25;10.82;;;;;;;26.44;50.30;99935.72;5041772;28;20568;-73
2021/08/15 06:56:01;;;;;;;14.20;9.60;;;;;;;26.47;49.99;99935.25;5042501;28;20120;-73
2021/08/15 06:58:28;;;;;;;12.50;10.63;;;;;;;26.51;49.68;99937.28;5041100;28;20069;-72
2021/08/15 07:00:55;;;;;;;13.38;11.25;;;;;;;26.49;49.74;99931.28;5042668;28;20056;-73
2021/08/15 07:03:22;;;;;;;19.02;12.55;;;;;;;26.55;49.63;99937.69;5043067;28;20052;-72
2021/08/15 07:05:49;;;;;;;15.75;10.52;;;;;;;26.59;49.08;99935.34;5041712;28;20055;-74
2021/08/15 07:08:16;;;;;;;33.63;26.48;;;;;;;26.66;48.96;99930.72;5040869;28;20130;-72
2021/08/15 07:10:43;;;;;;;13.73;11.70;;;;;;;26.79;48.56;99927.84;5042383;28;20048;-72
2021/08/15 07:13:11;;;;;;;16.80;13.65;;;;;;;26.97;48.47;99931.63;5041793;28;20617;-75
2021/08/15 07:15:38;;;;;;;12.98;10.05;;;;;;;27.23;47.67;99925.03;5023007;28;20045;-73
2021/08/15 07:18:05;;;;;;;17.40;12.45;;;;;;;27.44;47.17;99929.16;5040900;28;20057;-71
2021/08/15 07:20:34;;;;;;;13.55;8.77;;;;;;;27.53;46.70;99916.94;5023647;28;20041;-71
2021/08/15 07:23:02;;;;;;;13.52;10.70;;;;;;;27.67;46.13;99914.03;5039918;28;20109;-73
2021/08/15 07:25:29;;;;;;;13.48;8.57;;;;;;;27.68;45.53;99912.94;5041916;28;20073;-71
2021/08/15 07:27:57;;;;;;;11.23;7.65;;;;;;;27.85;45.47;99924.78;5038258;28;20057;-72
2021/08/15 07:30:26;;;;;;;14.02;10.70;;;;;;;28.05;44.75;99918.25;5041268;28;20045;-73
2021/08/15 07:32:54;;;;;;;8.90;7.90;;;;;;;28.22;44.39;99921.94;5043099;28;20053;-71
2021/08/15 07:35:22;;;;;;;11.57;8.90;;;;;;;28.14;43.28;99920.38;5044299;28;20508;-73
2021/08/15 07:37:49;;;;;;;11.20;7.88;;;;;;;28.05;43.67;99912.81;5043283;28;20049;-71
2021/08/15 07:40:17;;;;;;;10.15;7.75;;;;;;;28.18;43.17;99924.28;5044145;28;20074;-74
2021/08/15 07:42:45;;;;;;;12.32;7.10;;;;;;;28.32;43.39;99913.16;5045632;28;20049;-73
2021/08/15 07:45:12;;;;;;;11.00;7.53;;;;;;;28.46;43.51;99920.00;5042663;28;20045;-70
2021/08/15 07:47:41;;;;;;;12.05;8.57;;;;;;;28.67;43.47;99912.38;5042413;28;20416;-69
2021/08/15 07:50:09;;;;;;;13.40;8.93;;;;;;;28.84;43.23;99910.53;5045845;28;20048;-70
2021/08/15 07:52:36;;;;;;;11.13;7.65;;;;;;;29.02;42.77;99919.59;5026583;28;20068;-71
2021/08/15 07:55:05;;;;;;;13.60;7.75;;;;;;;29.12;42.96;99920.63;5043709;28;20057;-68
2021/08/15 07:57:33;;;;;;;8.52;5.78;;;;;;;29.25;42.03;99916.81;5043910;28;20117;-71
2021/08/15 08:00:00;;;;;;;7.47;6.28;;;;;;;29.32;41.13;99911.25;5043332;28;20057;-72
2021/08/15 08:02:27;;;;;;;9.73;5.90;;;;;;;29.30;40.88;99921.53;5042205;28;20616;-71
2021/08/15 08:04:55;;;;;;;10.98;8.02;;;;;;;29.13;38.46;99905.13;5042206;28;20067;-74
2021/08/15 08:07:24;;;;;;;7.45;6.63;;;;;;;28.99;38.12;99918.16;5042363;28;20068;-71
2021/08/15 08:09:53;;;;;;;11.43;6.35;;;;;;;29.05;38.60;99911.78;5045557;28;20503;-76
2021/08/15 08:12:22;;;;;;;13.00;6.40;;;;;;;29.24;38.72;99908.91;5044903;28;20057;-69
2021/08/15 08:14:49;;;;;;;8.25;5.95;;;;;;;29.21;37.73;99912.09;5042333;28;20059;-70
2021/08/15 08:17:17;;;;;;;8.20;6.75;;;;;;;29.14;38.12;99910.34;5043702;28;20049;-69
2021/08/15 08:19:44;;;;;;;13.48;6.80;;;;;;;28.97;37.72;99906.72;5042454;28;20060;-70
2021/08/15 08:22:14;;;;;;;14.27;6.68;;;;;;;28.87;38.75;99910.06;5041778;28;20045;-70
2021/08/15 08:24:41;;;;;;;9.65;6.60;;;;;;;28.94;39.06;99902.59;5042424;28;20068;-69
2021/08/15 08:27:08;;;;;;;6.90;5.95;;;;;;;29.21;39.05;99904.78;5039580;28;20052;-69
2021/08/15 08:29:35;;;;;;;10.05;6.35;;;;;;;29.45;38.40;99908.22;5041603;28;20674;-71
2021/08/15 08:32:02;;;;;;;9.60;6.78;;;;;;;29.46;39.24;99899.00;5042739;28;20649;-71
2021/08/15 08:34:29;;;;;;;6.32;5.13;;;;;;;29.57;39.37;99896.44;5043543;28;20396;-71
2021/08/15 08:36:56;;;;;;;9.65;7.95;;;;;;;29.62;38.92;99894.66;5042659;28;20072;-73
2021/08/15 08:39:26;;;;;;;9.55;7.60;;;;;;;29.48;39.04;99894.13;5043084;28;20053;-72
2021/08/15 08:41:53;;;;;;;8.20;6.97;;;;;;;29.29;38.62;99896.22;5047553;28;20113;-74
2021/08/15 08:44:21;;;;;;;8.68;6.75;;;;;;;29.23;38.65;99891.75;5048020;28;20079;-73
2021/08/15 08:46:49;;;;;;;9.40;7.05;;;;;;;29.13;39.43;99891.53;5044335;28;20051;-72
2021/08/15 08:49:17;;;;;;;11.35;7.97;;;;;;;29.06;39.84;99894.38;5042987;28;20041;-75
2021/08/15 08:51:47;;;;;;;11.55;7.85;;;;;;;29.15;39.81;99900.31;5041930;28;20041;-73
2021/08/15 08:54:14;;;;;;;8.75;6.18;;;;;;;29.37;39.71;99897.75;5025154;28;20103;-71
2021/08/15 08:56:42;;;;;;;9.93;7.13;;;;;;;29.73;38.87;99895.66;5042312;28;20045;-73
2021/08/15 08:59:09;;;;;;;11.88;8.00;;;;;;;29.80;39.35;99896.34;5039818;28;20045;-77
2021/08/15 09:01:36;;;;;;;14.43;8.07;;;;;;;29.87;38.23;99888.00;5039535;28;20486;-73
2021/08/15 09:04:04;;;;;;;10.07;9.05;;;;;;;29.75;36.63;99882.63;5033592;28;20528;-78
2021/08/15 09:06:31;;;;;;;10.80;7.10;;;;;;;29.61;37.01;99879.38;5031637;28;20048;-72
2021/08/15 09:09:10;;;;;;;8.73;7.18;;;;;;;29.64;37.38;99880.75;5029753;28;20048;-72
2021/08/15 09:11:37;;;;;;;8.27;6.13;;;;;;;29.67;37.58;99891.16;5032802;28;20045;-73
2021/08/15 09:14:07;;;;;;;9.77;7.05;;;;;;;29.72;37.29;99877.66;5032040;28;20512;-71
2021/08/15 09:16:52;;;;;;;12.27;7.38;;;;;;;30.00;37.12;99875.94;5031430;28;20045;-72
2021/08/15 09:19:31;;;;;;;8.80;6.93;;;;;;;29.70;36.98;99874.34;5030181;28;20140;-72
2021/08/15 09:22:10;;;;;;;8.30;6.40;;;;;;;29.67;38.13;99883.81;5032382;28;20052;-73
2021/08/15 09:24:45;;;;;;;7.15;6.13;;;;;;;29.92;37.16;99888.88;5021519;28;20718;-73
2021/08/15 09:27:18;;;;;;;10.60;8.82;;;;;;;30.01;36.66;99880.31;5022291;28;20055;-79
2021/08/15 09:30:08;;;;;;;8.65;7.68;;;;;;;29.77;36.81;99875.06;5025564;28;20057;-78
2021/08/15 09:32:37;;;;;;;9.25;7.50;;;;;;;29.71;35.79;99881.44;5030643;28;20055;-80
2021/08/15 09:35:06;;;;;;;8.38;6.15;;;;;;;29.66;36.81;99884.91;5024740;28;20086;-75
2021/08/15 09:37:35;;;;;;;7.75;6.85;;;;;;;29.65;35.23;99875.09;5022179;28;20060;-78
2021/08/15 09:40:20;;;;;;;9.98;7.25;;;;;;;29.63;35.75;99871.78;5021630;28;20405;-68
2021/08/15 09:42:47;;;;;;;9.93;6.75;;;;;;;29.76;35.46;99873.38;5028560;28;20041;-73
2021/08/15 09:45:17;;;;;;;7.40;5.90;;;;;;;29.62;34.96;99878.31;5030133;28;20049;-71
2021/08/15 09:47:44;;;;;;;8.70;5.93;;;;;;;29.67;35.00;99872.94;5021895;28;20128;-73
2021/08/15 09:50:20;;;;;;;7.85;6.38;;;;;;;29.79;34.66;99872.09;5022375;28;20347;-74
2021/08/15 09:52:47;;;;;;;10.27;6.25;;;;;;;29.63;34.59;99869.06;5021357;28;20049;-72
2021/08/15 09:55:14;;;;;;;7.63;6.00;;;;;;;29.59;35.04;99862.47;5025079;28;20052;-74
2021/08/15 09:57:42;;;;;;;10.00;5.97;;;;;;;29.63;34.97;99868.25;5025952;28;20049;-74
2021/08/15 10:00:33;;;;;;;7.28;6.20;;;;;;;29.63;34.66;99862.81;5026213;28;20050;-74
2021/08/15 10:03:03;;;;;;;6.88;6.15;;;;;;;29.55;35.14;99859.41;5027247;28;20049;-78
2021/08/15 10:05:32;;;;;;;6.82;6.10;;;;;;;29.42;35.37;99854.28;5023984;28;20124;-75
2021/08/15 10:08:02;;;;;;;7.43;5.78;;;;;;;29.36;35.42;99858.81;5022312;28;20118;-74
2021/08/15 10:10:29;;;;;;;7.22;6.40;;;;;;;29.45;35.01;99847.53;5020341;28;20107;-71
2021/08/15 10:12:56;;;;;;;6.60;5.25;;;;;;;29.66;35.47;99852.25;5020274;28;20490;-73
2021/08/15 10:15:24;;;;;;;7.85;5.65;;;;;;;29.68;35.07;99850.09;5036058;28;20045;-75
2021/08/15 10:17:57;;;;;;;6.53;5.72;;;;;;;29.62;34.14;99842.94;5027959;28;20698;-76
2021/08/15 10:20:28;;;;;;;7.88;5.95;;;;;;;29.53;34.35;99847.13;5040939;28;20041;-74
2021/08/15 10:23:06;;;;;;;9.48;7.47;;;;;;;29.52;34.24;99851.75;5039843;28;20128;-72
2021/08/15 10:25:37;;;;;;;8.23;5.90;;;;;;;29.50;35.13;99839.47;5039964;28;20669;-73
2021/08/15 10:28:05;;;;;;;9.80;7.18;;;;;;;29.54;33.96;99841.44;5051062;28;20055;-72
2021/08/15 10:30:46;;;;;;;6.80;5.40;;;;;;;29.59;33.84;99839.88;5039837;28;20052;-74
2021/08/15 10:33:26;;;;;;;7.25;5.63;;;;;;;29.66;33.37;99830.47;5040116;28;20056;-75
2021/08/15 10:36:21;;;;;;;8.05;5.28;;;;;;;29.63;33.59;99839.13;5040499;28;20045;-72
2021/08/15 10:38:49;;;;;;;16.80;7.68;;;;;;;29.67;33.50;99832.09;4957225;28;20054;-71
2021/08/15 10:41:53;;;;;;;9.38;4.93;;;;;;;29.55;34.10;99829.50;4958780;28;20043;-73
2021/08/15 10:44:21;;;;;;;7.63;4.85;;;;;;;29.52;34.16;99827.25;4956645;28;20128;-72
2021/08/15 10:47:11;;;;;;;4.95;4.25;;;;;;;29.54;34.03;99814.22;4963682;28;20140;-75
2021/08/15 10:49:55;;;;;;;7.38;4.55;;;;;;;29.66;34.12;99813.34;4959090;28;20055;-74
2021/08/15 10:52:34;;;;;;;6.57;4.30;;;;;;;29.80;33.73;99814.69;4956782;28;20061;-72
2021/08/15 10:55:04;;;;;;;5.47;4.50;;;;;;;29.77;33.10;99808.91;4958587;28;20061;-74
2021/08/15 10:57:43;;;;;;;7.00;4.90;;;;;;;29.78;33.61;99815.97;4957519;28;20058;-72
2021/08/15 11:00:44;;;;;;;6.45;4.47;;;;;;;29.90;33.86;99820.25;4958060;28;20614;-76
2021/08/15 11:03:31;;;;;;;6.95;4.82;;;;;;;30.05;34.16;99810.66;4920094;29;20059;-75
2021/08/15 11:06:00;;;;;;;8.27;4.38;;;;;;;30.31;34.41;99823.56;4919283;29;20054;-71
2021/08/15 11:08:53;;;;;;;8.85;5.13;;;;;;;30.46;33.89;99812.06;4923756;29;20060;-74
2021/08/15 11:11:25;;;;;;;6.95;4.35;;;;;;;30.40;33.53;99815.00;4923064;29;20087;-73
2021/08/15 11:14:29;;;;;;;6.20;4.32;;;;;;;30.36;33.48;99801.03;4923638;29;20051;-72
2021/08/15 11:16:59;;;;;;;7.13;3.97;;;;;;;30.31;33.64;99814.56;4976571;28;20053;-73
2021/08/15 11:19:28;;;;;;;4.85;3.50;;;;;;;30.59;33.73;99804.56;4981539;28;20054;-72
2021/08/15 11:22:10;;;;;;;6.97;3.78;;;;;;;30.80;32.48;99805.63;4979983;28;20050;-71
2021/08/15 11:24:40;;;;;;;6.22;4.43;;;;;;;30.79;32.24;99807.56;4980246;28;20746;-71
2021/08/15 11:27:08;;;;;;;6.53;3.97;;;;;;;30.65;32.50;99793.47;4978318;28;20058;-73
2021/08/15 11:29:39;;;;;;;5.72;4.47;;;;;;;30.55;32.98;99798.00;4982374;28;20120;-72